KSQI/SQI METAR and TAF weather

Enter ICAO airport designator
Station Type Date Time Source
KSQI METAR 2022/01/28 23:56 UTC NOAA

KSQI 282356Z 27004KT 10SM CLR M13/M18 A3037 RMK AO2 SLP154 T11281183 11061 21133 53003 FZRANO


Station Type Date Time Source
KSQI Decoded METAR 2022/01/28 23:56 UTC NOAA

Sterling Rockfalls, IL, United States (KSQI) 41-45N 089-40W
Jan 28, 2022 - 06:56 PM EST / 2022.01.28 2356 UTC
Wind: from the W (270 degrees) at 5 MPH (4 KT):0
Visibility: 10 mile(s):0
Sky conditions: clear
Temperature: 9.0 F (-12.8 C)
Windchill: 0 F (-18 C):1
Dew Point: -0.9 F (-18.3 C)
Relative Humidity: 63%
Pressure (altimeter): 30.37 in. Hg (1028 hPa)
Pressure tendency: 0.01 inches (0.3 hPa) higher than three hours ago
ob: KSQI 282356Z 27004KT 10SM CLR M13/M18 A3037 RMK AO2 SLP154 T11281183 11061 21133 53003 FZRANO
cycle: 0

Station Type Date Time Source
KSQI TAF UTC NOAA

Error!

Example: see airport list